Station: Parafield

  Atmospheric Gas Attenuation - ITU Rec 676-11   --------------- db/100km ---------------
Date Time Temp RH % AH g/m3 Dew Point Wind Direction Speed kph Gust kph Barometer mB Rainfall Since 9am 24GHz 47GHz 76GHz 122GHz 134GHz 241GHz
17 01:40 2.6 3.4 0 0 1021.3 0
17 01:30 4 5 0 0 1021.6 0
17 01:20 4.8 5.8 0 0 1021.6 0
17 01:10 5.4 6.5 0 0 1021.6 0
17 01:00 5 6 0 0 1021.9 0
17 00:50 4.6 5.6 0 0 1021.8 0
17 00:40 4.6 5.6 0 0 1021.9 0
17 00:30 3.9 4.9 0 0 1022 0
17 00:20 3.2 3.8 0 0 1022 0
17 00:10 5.5 6.3 0 0 1022.2 0
17 00:00 5.7 6.5 0 0 1022.3 0
16 23:50 5.7 6.5 0 0 1022.4 0
16 23:40 6 6.8 0 0 1022.5 0
16 23:30 5.3 100 6.94 5.3 6 7 1022.7 0 16.4 26.0 37.5 98.1 86.8 296.4
16 23:20 5.4 5.8 6 7 1022.6 0
16 23:10 7.2 8.1 6 6 1022.6 0
16 23:00 7.1 100 7.8 7.1 7 7 1022.7 0 18.2 26.9 40.3 105.6 96.7 331.6
16 22:50 6.7 7.4 7 7 1022.6 0
16 22:40 7.5 8.4 0 0 1022.5 0
16 22:30 6.2 100 7.36 6.2 9 9 1022.4 0 17.3 26.4 38.9 101.7 91.6 313.5
16 22:20 6.4 7 9 11 1022.3 0
16 22:10 6.6 7.3 9 11 1022.5 0
16 22:00 5.7 100 7.12 5.7 13 15 1022.8 0 16.8 26.2 38.1 99.7 88.8 303.7
16 21:50 5.8 6.1 9 11 1022.9 0
16 21:40 6.8 7.5 0 0 1023.2 0
16 21:30 6.5 100 7.5 6.5 2 7 1023.4 0 17.6 26.6 39.4 103.0 93.3 319.4
16 21:20 6 6.6 7 7 1023.3 0
16 21:10 5.7 6.1 7 7 1023.3 0
16 21:00 5.7 100 7.12 5.7 6 7 1023.4 0 16.8 26.2 38.1 99.7 88.9 303.9
16 20:50 5.7 100 7.12 5.7 6 7 1023.3 0 16.8 26.2 38.1 99.7 88.9 303.9
16 20:40 6.6 6.7 7 9 1023.2 0
16 20:30 6.9 100 7.7 6.9 7 7 1023.2 0 18.0 26.8 40.0 104.8 95.6 327.6
16 20:20 6 99 7.19 5.9 7 7 1023.2 0 16.9 26.2 38.3 100.1 89.5 306.1
16 20:10 7 94 7.29 6.1 9 9 1023 0 17.1 26.1 38.2 100.0 89.7 307.0
16 20:00 6.9 86 6.62 4.7 7 9 1023.4 0 15.6 25.0 35.5 92.7 80.7 275.3
16 19:50 8.1 87 7.24 6.1 7 9 1023.4 0 16.9 25.7 37.5 98.0 87.8 300.4
16 19:40 8.3 89 7.5 6.6 7 7 1023.4 0 17.5 26.1 38.5 100.7 91.1 312.1
16 19:30 9 99 8.73 8.9 0 0 1023.5 0 20.1 28.0 43.3 113.7 107.5 369.5
16 19:20 8.2 89 7.46 6.5 0 0 1023.3 0 17.4 26.0 38.3 100.3 90.7 310.6
16 19:10 8 82 6.78 5.1 7 7 1023.2 0 15.9 25.0 35.6 93.1 81.6 278.9
16 19:00 9.3 84 7.55 6.7 7 7 1023.3 0 17.5 25.9 38.2 99.9 90.6 310.5
16 18:50 9.4 85 7.69 7 7 7 1023.1 0 17.8 26.1 38.7 101.3 92.4 316.7
16 18:40 9.3 81 7.28 6.2 7 9 1023.1 0 17.0 25.4 37.1 97.0 86.9 297.7
16 18:30 10.3 80 7.66 7 6 6 1023.1 0 17.7 25.7 38.1 99.8 90.9 311.7
16 18:20 10.1 81 7.66 7 6 6 1022.8 0 17.7 25.8 38.2 100.1 91.1 312.4
16 18:10 9.8 81 7.52 6.7 6 6 1022.7 0 17.5 25.6 37.8 98.9 89.6 307.0
16 18:00 10 77 7.24 6.2 7 9 1022.7 0 16.8 25.1 36.6 95.6 85.6 293.1
16 17:50 10.8 75 7.41 6.6 7 9 1022.6 0 17.2 25.2 36.9 96.5 87.0 297.9
16 17:40 11.3 74 7.55 6.8 7 9 1022.5 0 17.5 25.3 37.2 97.3 88.2 302.5
16 17:30 11.4 75 7.7 7.1 7 9 1022.6 0 17.8 25.5 37.8 98.8 90.1 309.1
16 17:20 11.4 75 7.7 7.1 9 9 1022.5 0 17.8 25.5 37.8 98.8 90.1 309.1
16 17:10 11.9 72 7.63 7 11 11 1022.5 0 17.6 25.2 37.2 97.5 88.6 303.9
16 17:00 12.6 71 7.86 7.5 11 13 1022.7 0 18.1 25.4 37.8 99.1 90.9 311.8
16 16:50 13.2 70 8.04 7.9 11 11 1022.6 0 18.4 25.5 38.3 100.2 92.5 317.7
16 16:40 14 70 8.44 8.6 9 11 1022.7 0 19.2 25.9 39.5 103.5 96.8 332.8
16 16:30 14.3 69 8.48 8.7 13 15 1022.8 0 19.3 25.9 39.5 103.5 97.0 333.4
16 16:20 14.6 68 8.51 8.8 13 13 1022.7 0 19.3 25.9 39.5 103.4 97.0 333.5
16 16:10 14.9 67 8.54 8.8 13 15 1022.7 0 19.4 25.8 39.4 103.3 97.0 333.6
16 16:00 15.3 65 8.49 8.8 15 19 1022.9 0 19.3 25.6 39.0 102.3 95.9 329.7
16 15:50 15.7 64 8.56 8.9 15 17 1022.7 0 19.4 25.6 39.1 102.5 96.3 331.2
16 15:40 16.3 64 8.88 9.5 15 17 1022.6 0 20.1 26.0 40.1 105.1 99.7 343.1
16 15:30 16.9 60 8.63 9.1 9 13 1022.7 0 19.5 25.4 38.8 101.7 95.7 329.3
16 15:20 17.1 60 8.73 9.3 11 13 1022.5 0 19.7 25.5 39.1 102.5 96.7 332.9
16 15:10 17 60 8.68 9.2 11 13 1022.5 0 19.6 25.4 38.9 102.1 96.2 331.1
16 15:00 17 59 8.54 8.9 11 13 1022.6 0 19.3 25.2 38.4 100.6 94.4 324.9
16 14:50 17.1 61 8.88 9.5 11 13 1022.5 0 20.0 25.7 39.7 104.0 98.6 339.6
16 14:40 16.9 60 8.63 9.1 13 15 1022.5 0 19.5 25.4 38.8 101.7 95.7 329.3
16 14:30 17.1 59 8.59 9 11 15 1022.7 0 19.4 25.3 38.6 101.0 94.9 326.7
16 14:20 17.2 56 8.2 8.4 13 13 1022.5 0 18.6 24.6 37.0 96.9 89.9 309.0
16 14:10 17.2 55 8.05 8.1 7 9 1022.6 0 18.3 24.4 36.4 95.4 88.0 302.5
16 14:00 17.6 55 8.25 8.5 7 11 1022.8 0 18.7 24.6 37.0 97.0 90.1 309.8
16 13:50 17.6 56 8.4 8.7 0 0 1022.8 0 19.0 24.9 37.6 98.5 92.0 316.3
16 13:40 17.3 54 7.95 7.9 0 2 1022.8 0 18.0 24.2 36.0 94.3 86.7 297.8
16 13:30 17.3 54 7.95 7.9 4 11 1023 0 18.0 24.3 36.0 94.3 86.7 297.9
16 13:20 16.8 53 7.58 7.2 9 11 1023.1 0 17.3 23.8 34.9 91.2 82.7 283.7
16 13:10 16.8 55 7.86 7.7 7 9 1023.2 0 17.9 24.3 35.9 94.0 86.2 295.9
16 13:00 16.5 52 7.3 6.6 6 9 1023.4 0 16.7 23.5 34.0 88.8 79.6 272.8
16 12:50 16.9 52 7.48 7 6 7 1023.5 0 17.1 23.7 34.5 90.1 81.4 279.2
16 12:40 16.3 54 7.49 7 7 11 1023.7 0 17.1 23.8 34.8 90.9 82.1 281.7
16 12:30 16.4 52 7.26 6.5 6 11 1024 0 16.6 23.5 33.9 88.6 79.2 271.6
16 12:20 16.1 54 7.4 6.8 6 7 1024.1 0 16.9 23.8 34.5 90.3 81.3 278.6
16 12:10 15.8 56 7.54 7 9 11 1024.3 0 17.2 24.1 35.2 92.1 83.3 285.8
16 12:00 15.5 52 6.87 5.7 7 13 1024.5 0 15.8 23.2 32.8 85.7 75.4 257.9
16 11:50 15.3 54 7.05 6.1 2 4 1024.6 0 16.2 23.5 33.6 87.7 77.8 266.3
16 11:40 15.1 52 6.71 5.3 6 6 1024.8 0 15.5 23.0 32.4 84.6 73.8 252.4
16 11:30 14.8 56 7.09 6.1 11 17 1025.1 0 16.3 23.7 34.0 88.7 78.8 269.9
16 11:20 14.5 59 7.34 6.6 13 15 1025.2 0 16.9 24.1 35.1 91.6 82.3 281.9
16 11:10 14.2 56 6.84 5.6 11 13 1025.3 0 15.8 23.5 33.3 86.9 76.3 261.0
16 11:00 14 56 6.75 5.4 9 13 1025.4 0 15.6 23.4 33.0 86.2 75.4 257.8
16 10:50 13.8 59 7.03 5.9 9 11 1025.4 0 16.2 23.9 34.2 89.3 79.1 270.7
16 10:40 13.7 60 7.11 6.1 11 13 1025.6 0 16.4 24.0 34.5 90.2 80.2 274.6
16 10:30 13.3 58 6.7 5.2 9 13 1025.8 0 15.6 23.5 33.1 86.5 75.5 257.9
16 10:20 13.3 62 7.16 6.2 9 13 1025.7 0 16.5 24.2 34.9 91.2 81.3 278.2
16 10:10 13.2 63 7.23 6.3 7 9 1025.6 0 16.7 24.3 35.2 92.0 82.2 281.7
16 10:00 12.7 64 7.13 6.1 6 9 1025.6 0 16.5 24.3 35.0 91.6 81.5 279.0
16 09:50 12.1 59 6.33 4.3 6 7 1025.5 0 14.8 23.2 32.2 84.0 71.9 245.4
16 09:40 11.7 64 6.69 5.1 7 7 1025.3 0 15.6 23.9 33.8 88.1 76.9 262.6
16 09:30 11.6 68 7.07 5.9 6 9 1025.3 0 16.4 24.5 35.3 92.2 81.8 280.1
16 09:20 11.1 78 7.86 7.4 0 0 1025.1 0 18.1 25.9 38.7 101.2 92.8 318.4
16 09:10 9.8 84 7.8 7.2 0 0 1025.1 0 18.1 26.2 39.1 102.2 93.6 320.9

Last Refresh: 17-Jul-2020 01:49:18

Most of the information presented on this site is sourced from the Bureau of Meteorology.  Copyright in all material sourced from the Bureau of Meteorology resides with the Commonwealth of Australia.